CheckWX is a tool to help pilots better visualize weather data.  It is not intended as a substitute for an official pre-flight weather briefing.

07:19:10 UTC

KUKT METAR
Quakertown Airport
Quakertown, Pennsylvania, USA
Current

44 mins ago

KUKT 310635Z AUTO 00000KT 10SM 08/07 A2996 RMK A01
Observed
Mar-31 @ 06:35 UTC
Visibility
10 SM
Cloud Levels
Temperature
C / 46°F
Dewpoint
C / 45°F
Humidity
93%
Altimeter
29.96" Hg
Pressure
1014.52 hPa
Previous

59 mins ago

KUKT 310620Z AUTO 00000KT 10SM SCT016 SCT029 OVC035 08/07 A2996 RMK A01
Observed
Mar-31 @ 06:20 UTC
Visibility
10 SM
Flight Rules
VFR
Cloud Levels
  • Scattered at 1,600' AGL
  • Scattered at 2,900' AGL
  • Overcast at 3,500' AGL
Temperature
C / 46°F
Dewpoint
C / 45°F
Humidity
93%
Altimeter
29.96" Hg
Pressure
1014.52 hPa
Previous

1 hour ago

KUKT 310615Z AUTO 00000KT 10SM OVC034 08/06 A2996 RMK A01
Observed
Mar-31 @ 06:15 UTC
Visibility
10 SM
Flight Rules
VFR
Cloud Levels
  • Overcast at 3,400' AGL
Temperature
C / 46°F
Dewpoint
C / 43°F
Humidity
87%
Altimeter
29.96" Hg
Pressure
1014.52 hPa